sensor_id;sensor_type;location;lat;lon;timestamp;pressure;altitude;pressure_sealevel;temperature;humidity
29907;BME280;16776;50.958;10.994;2023-11-18T00:00:27;99210.06;;;4.14;100.00
29907;BME280;16776;50.958;10.994;2023-11-18T00:02:54;99208.34;;;4.13;100.00
29907;BME280;16776;50.958;10.994;2023-11-18T00:05:21;99213.47;;;4.13;100.00
29907;BME280;16776;50.958;10.994;2023-11-18T00:07:49;99210.91;;;4.13;99.72
29907;BME280;16776;50.958;10.994;2023-11-18T00:10:15;99213.47;;;4.13;100.00
29907;BME280;16776;50.958;10.994;2023-11-18T00:12:42;99210.88;;;4.10;100.00
29907;BME280;16776;50.958;10.994;2023-11-18T00:15:09;99209.16;;;4.09;100.00
29907;BME280;16776;50.958;10.994;2023-11-18T00:17:38;99215.97;;;4.09;99.91
29907;BME280;16776;50.958;10.994;2023-11-18T00:20:05;99207.41;;;4.04;99.62
29907;BME280;16776;50.958;10.994;2023-11-18T00:22:34;99213.34;;;4.00;99.58
29907;BME280;16776;50.958;10.994;2023-11-18T00:25:01;99210.75;;;3.97;99.58
29907;BME280;16776;50.958;10.994;2023-11-18T00:27:30;99214.09;;;3.93;99.37
29907;BME280;16776;50.958;10.994;2023-11-18T00:29:56;99217.47;;;3.89;99.24
29907;BME280;16776;50.958;10.994;2023-11-18T00:32:23;99220.81;;;3.84;99.79
29907;BME280;16776;50.958;10.994;2023-11-18T00:34:51;99225.94;;;3.83;99.23
29907;BME280;16776;50.958;10.994;2023-11-18T00:37:17;99228.38;;;3.77;99.37
29907;BME280;16776;50.958;10.994;2023-11-18T00:39:44;99220.69;;;3.72;99.83
29907;BME280;16776;50.958;10.994;2023-11-18T00:42:11;99227.47;;;3.69;99.22
29907;BME280;16776;50.958;10.994;2023-11-18T00:44:38;99228.25;;;3.65;99.74
29907;BME280;16776;50.958;10.994;2023-11-18T00:47:04;99228.22;;;3.60;99.69
29907;BME280;16776;50.958;10.994;2023-11-18T00:49:31;99229.91;;;3.57;99.72
29907;BME280;16776;50.958;10.994;2023-11-18T00:52:00;99233.25;;;3.54;99.17
29907;BME280;16776;50.958;10.994;2023-11-18T00:54:27;99237.44;;;3.49;99.92
29907;BME280;16776;50.958;10.994;2023-11-18T00:56:53;99232.28;;;3.46;99.26
29907;BME280;16776;50.958;10.994;2023-11-18T00:59:20;99237.38;;;3.43;99.74
29907;BME280;16776;50.958;10.994;2023-11-18T01:01:46;99239.88;;;3.38;99.44
29907;BME280;16776;50.958;10.994;2023-11-18T01:04:14;99244.91;;;3.35;99.60
29907;BME280;16776;50.958;10.994;2023-11-18T01:06:42;99242.38;;;3.35;99.24
29907;BME280;16776;50.958;10.994;2023-11-18T01:09:10;99244.84;;;3.32;99.03
29907;BME280;16776;50.958;10.994;2023-11-18T01:11:37;99241.38;;;3.27;99.96
29907;BME280;16776;50.958;10.994;2023-11-18T01:14:04;99250.72;;;3.25;99.36
29907;BME280;16776;50.958;10.994;2023-11-18T01:16:31;99255.75;;;3.22;99.57
29907;BME280;16776;50.958;10.994;2023-11-18T01:18:58;99247.22;;;3.19;99.75
29907;BME280;16776;50.958;10.994;2023-11-18T01:21:24;99259.06;;;3.17;99.73
29907;BME280;16776;50.958;10.994;2023-11-18T01:23:52;99251.38;;;3.12;98.72
29907;BME280;16776;50.958;10.994;2023-11-18T01:26:20;99259.84;;;3.11;98.75
29907;BME280;16776;50.958;10.994;2023-11-18T01:28:48;99258.09;;;3.05;98.64
29907;BME280;16776;50.958;10.994;2023-11-18T01:31:15;99261.44;;;3.03;99.58
29907;BME280;16776;50.958;10.994;2023-11-18T01:33:42;99260.53;;;2.99;99.64
29907;BME280;16776;50.958;10.994;2023-11-18T01:36:10;99259.66;;;2.97;99.20
29907;BME280;16776;50.958;10.994;2023-11-18T01:38:38;99253.66;;;2.94;99.09
29907;BME280;16776;50.958;10.994;2023-11-18T01:41:05;99259.53;;;2.90;99.67
29907;BME280;16776;50.958;10.994;2023-11-18T01:43:33;99259.53;;;2.87;99.13
29907;BME280;16776;50.958;10.994;2023-11-18T01:46:02;99260.34;;;2.87;99.04
29907;BME280;16776;50.958;10.994;2023-11-18T01:48:30;99268.78;;;2.83;99.82
29907;BME280;16776;50.958;10.994;2023-11-18T01:50:58;99247.44;;;2.72;99.63
29907;BME280;16776;50.958;10.994;2023-11-18T01:53:26;99261.13;;;2.82;99.53
29907;BME280;16776;50.958;10.994;2023-11-18T01:55:53;99267.88;;;2.81;99.34
29907;BME280;16776;50.958;10.994;2023-11-18T01:58:21;99265.34;;;2.81;100.00
29907;BME280;16776;50.958;10.994;2023-11-18T02:00:50;99275.56;;;2.84;99.45
29907;BME280;16776;50.958;10.994;2023-11-18T02:03:17;99272.16;;;2.82;100.00
29907;BME280;16776;50.958;10.994;2023-11-18T02:05:45;99256.75;;;2.72;100.00
29907;BME280;16776;50.958;10.994;2023-11-18T02:08:12;99273.00;;;2.83;99.61
29907;BME280;16776;50.958;10.994;2023-11-18T02:10:46;99270.53;;;2.89;99.54
29907;BME280;16776;50.958;10.994;2023-11-18T02:13:20;99262.06;;;2.88;100.00
29907;BME280;16776;50.958;10.994;2023-11-18T02:15:53;99245.78;;;2.76;100.00
29907;BME280;16776;50.958;10.994;2023-11-18T02:18:20;99268.81;;;2.85;99.83
29907;BME280;16776;50.958;10.994;2023-11-18T02:20:49;99267.97;;;2.86;99.49
29907;BME280;16776;50.958;10.994;2023-11-18T02:23:17;99269.66;;;2.85;99.55
29907;BME280;16776;50.958;10.994;2023-11-18T02:25:45;99265.44;;;2.87;99.53
29907;BME280;16776;50.958;10.994;2023-11-18T02:28:12;99273.91;;;2.85;99.91
29907;BME280;16776;50.958;10.994;2023-11-18T02:30:39;99274.75;;;2.85;99.95
29907;BME280;16776;50.958;10.994;2023-11-18T02:33:11;99269.69;;;2.88;99.54
29907;BME280;16776;50.958;10.994;2023-11-18T02:35:47;99277.31;;;2.87;99.55
29907;BME280;16776;50.958;10.994;2023-11-18T02:38:16;99284.06;;;2.85;100.00
29907;BME280;16776;50.958;10.994;2023-11-18T02:40:46;99280.66;;;2.84;99.99
29907;BME280;16776;50.958;10.994;2023-11-18T02:43:15;99273.00;;;2.83;99.93
29907;BME280;16776;50.958;10.994;2023-11-18T02:45:42;99254.97;;;2.66;100.00
29907;BME280;16776;50.958;10.994;2023-11-18T02:48:09;99283.16;;;2.80;99.37
29907;BME280;16776;50.958;10.994;2023-11-18T02:50:36;99284.81;;;2.78;99.83
29907;BME280;16776;50.958;10.994;2023-11-18T02:53:03;99283.94;;;2.77;99.28
29907;BME280;16776;50.958;10.994;2023-11-18T02:55:30;99281.38;;;2.76;99.50
29907;BME280;16776;50.958;10.994;2023-11-18T02:57:58;99284.81;;;2.78;100.00
29907;BME280;16776;50.958;10.994;2023-11-18T03:00:24;99289.00;;;2.74;99.86
29907;BME280;16776;50.958;10.994;2023-11-18T03:02:51;99288.16;;;2.74;99.58
29907;BME280;16776;50.958;10.994;2023-11-18T03:05:18;99292.38;;;2.73;100.00
29907;BME280;16776;50.958;10.994;2023-11-18T03:07:45;99294.88;;;2.72;99.99
29907;BME280;16776;50.958;10.994;2023-11-18T03:10:15;99294.88;;;2.72;100.00
29907;BME280;16776;50.958;10.994;2023-11-18T03:12:46;99294.00;;;2.70;99.61
29907;BME280;16776;50.958;10.994;2023-11-18T03:15:14;99300.81;;;2.71;99.05
29907;BME280;16776;50.958;10.994;2023-11-18T03:17:43;99293.97;;;2.67;99.28
29907;BME280;16776;50.958;10.994;2023-11-18T03:20:10;99302.44;;;2.65;99.39
29907;BME280;16776;50.958;10.994;2023-11-18T03:22:39;99303.25;;;2.64;98.95
29907;BME280;16776;50.958;10.994;2023-11-18T03:25:07;99306.59;;;2.62;99.97
29907;BME280;16776;50.958;10.994;2023-11-18T03:27:34;99300.66;;;2.60;98.89
29907;BME280;16776;50.958;10.994;2023-11-18T03:30:01;99303.16;;;2.58;99.94
29907;BME280;16776;50.958;10.994;2023-11-18T03:32:29;99306.53;;;2.57;99.37
29907;BME280;16776;50.958;10.994;2023-11-18T03:34:56;99307.31;;;2.53;99.12
29907;BME280;16776;50.958;10.994;2023-11-18T03:37:24;99311.50;;;2.51;98.80
29907;BME280;16776;50.958;10.994;2023-11-18T03:39:51;99318.28;;;2.51;99.90
29907;BME280;16776;50.958;10.994;2023-11-18T03:42:18;99308.06;;;2.49;99.96
29907;BME280;16776;50.958;10.994;2023-11-18T03:44:45;99306.41;;;2.50;100.00
29907;BME280;16776;50.958;10.994;2023-11-18T03:47:12;99303.00;;;2.49;100.00
29907;BME280;16776;50.958;10.994;2023-11-18T03:49:40;99303.06;;;2.52;100.00
29907;BME280;16776;50.958;10.994;2023-11-18T03:52:07;99294.53;;;2.50;100.00
29907;BME280;16776;50.958;10.994;2023-11-18T03:54:34;99296.25;;;2.51;100.00
29907;BME280;16776;50.958;10.994;2023-11-18T03:57:00;99304.75;;;2.52;100.00
29907;BME280;16776;50.958;10.994;2023-11-18T03:59:27;99303.91;;;2.53;100.00
29907;BME280;16776;50.958;10.994;2023-11-18T04:01:53;99304.78;;;2.53;100.00
29907;BME280;16776;50.958;10.994;2023-11-18T04:04:20;99310.72;;;2.54;100.00
29907;BME280;16776;50.958;10.994;2023-11-18T04:06:48;99300.59;;;2.57;99.50
29907;BME280;16776;50.958;10.994;2023-11-18T04:09:15;99307.34;;;2.55;99.38
29907;BME280;16776;50.958;10.994;2023-11-18T04:11:42;99305.63;;;2.54;100.00
29907;BME280;16776;50.958;10.994;2023-11-18T04:14:11;99294.50;;;2.47;100.00
29907;BME280;16776;50.958;10.994;2023-11-18T04:16:38;99309.84;;;2.53;99.98
29907;BME280;16776;50.958;10.994;2023-11-18T04:19:04;99313.22;;;2.52;100.00
29907;BME280;16776;50.958;10.994;2023-11-18T04:21:31;99311.50;;;2.51;99.61
29907;BME280;16776;50.958;10.994;2023-11-18T04:23:59;99312.38;;;2.52;100.00
29907;BME280;16776;50.958;10.994;2023-11-18T04:26:26;99308.94;;;2.50;99.70
29907;BME280;16776;50.958;10.994;2023-11-18T04:28:53;99300.34;;;2.42;99.85
29907;BME280;16776;50.958;10.994;2023-11-18T04:31:19;99311.47;;;2.48;100.00
29907;BME280;16776;50.958;10.994;2023-11-18T04:33:46;99312.31;;;2.47;100.00
29907;BME280;16776;50.958;10.994;2023-11-18T04:36:13;99310.56;;;2.45;99.19
29907;BME280;16776;50.958;10.994;2023-11-18T04:38:42;99320.69;;;2.43;99.97
29907;BME280;16776;50.958;10.994;2023-11-18T04:41:10;99309.66;;;2.41;99.94
29907;BME280;16776;50.958;10.994;2023-11-18T04:43:36;99316.31;;;2.36;99.50
29907;BME280;16776;50.958;10.994;2023-11-18T04:46:05;99318.00;;;2.34;99.67
29907;BME280;16776;50.958;10.994;2023-11-18T04:48:31;99305.28;;;2.33;99.00
29907;BME280;16776;50.958;10.994;2023-11-18T04:50:59;99300.97;;;2.30;99.78
29907;BME280;16776;50.958;10.994;2023-11-18T04:53:26;99288.22;;;2.27;99.81
29907;BME280;16776;50.958;10.994;2023-11-18T04:55:52;99301.72;;;2.23;98.91
29907;BME280;16776;50.958;10.994;2023-11-18T04:58:20;99293.22;;;2.21;99.70
29907;BME280;16776;50.958;10.994;2023-11-18T05:00:47;99292.28;;;2.16;99.03
29907;BME280;16776;50.958;10.994;2023-11-18T05:03:13;99291.31;;;2.11;98.54
29907;BME280;16776;50.958;10.994;2023-11-18T05:05:40;99289.53;;;2.05;99.09
29907;BME280;16776;50.958;10.994;2023-11-18T05:08:07;99292.81;;;2.00;99.29
29907;BME280;16776;50.958;10.994;2023-11-18T05:10:34;99292.72;;;1.94;98.80
29907;BME280;16776;50.958;10.994;2023-11-18T05:13:01;99286.69;;;1.89;99.44
29907;BME280;16776;50.958;10.994;2023-11-18T05:15:29;99281.53;;;1.85;98.58
29907;BME280;16776;50.958;10.994;2023-11-18T05:17:56;99283.97;;;1.79;99.28
29907;BME280;16776;50.958;10.994;2023-11-18T05:20:23;99281.41;;;1.76;99.78
29907;BME280;16776;50.958;10.994;2023-11-18T05:22:50;99289.84;;;1.75;99.38
29907;BME280;16776;50.958;10.994;2023-11-18T05:25:16;99285.53;;;1.73;99.84
29907;BME280;16776;50.958;10.994;2023-11-18T05:27:43;99283.00;;;1.71;99.44
29907;BME280;16776;50.958;10.994;2023-11-18T05:30:11;99301.63;;;1.72;99.16
29907;BME280;16776;50.958;10.994;2023-11-18T05:32:39;99295.69;;;1.71;99.50
29907;BME280;16776;50.958;10.994;2023-11-18T05:35:06;99298.16;;;1.68;99.86
29907;BME280;16776;50.958;10.994;2023-11-18T05:37:36;99295.59;;;1.67;99.81
29907;BME280;16776;50.958;10.994;2023-11-18T05:40:04;99292.97;;;1.62;99.64
29907;BME280;16776;50.958;10.994;2023-11-18T05:42:32;99301.44;;;1.63;99.05
29907;BME280;16776;50.958;10.994;2023-11-18T05:45:01;99307.38;;;1.63;99.13
29907;BME280;16776;50.958;10.994;2023-11-18T05:47:27;99307.38;;;1.63;99.73
29907;BME280;16776;50.958;10.994;2023-11-18T05:49:55;99303.97;;;1.63;99.92
29907;BME280;16776;50.958;10.994;2023-11-18T05:52:22;99303.91;;;1.60;99.46
29907;BME280;16776;50.958;10.994;2023-11-18T05:54:49;99303.16;;;1.64;99.76
29907;BME280;16776;50.958;10.994;2023-11-18T05:57:16;99296.41;;;1.64;99.95
29907;BME280;16776;50.958;10.994;2023-11-18T05:59:43;99301.47;;;1.64;99.95
29907;BME280;16776;50.958;10.994;2023-11-18T06:02:09;99299.75;;;1.63;99.08
29907;BME280;16776;50.958;10.994;2023-11-18T06:04:38;99301.44;;;1.63;99.56
29907;BME280;16776;50.958;10.994;2023-11-18T06:07:06;99299.75;;;1.63;99.11
29907;BME280;16776;50.958;10.994;2023-11-18T06:09:32;99294.59;;;1.60;98.82
29907;BME280;16776;50.958;10.994;2023-11-18T06:11:59;99302.22;;;1.60;99.78
29907;BME280;16776;50.958;10.994;2023-11-18T06:14:26;99303.91;;;1.60;98.88
29907;BME280;16776;50.958;10.994;2023-11-18T06:16:52;99312.38;;;1.59;98.94
29907;BME280;16776;50.958;10.994;2023-11-18T06:19:20;99310.69;;;1.59;98.96
29907;BME280;16776;50.958;10.994;2023-11-18T06:21:47;99313.22;;;1.59;99.25
29907;BME280;16776;50.958;10.994;2023-11-18T06:24:15;99303.91;;;1.60;98.92
29907;BME280;16776;50.958;10.994;2023-11-18T06:26:44;99314.91;;;1.59;98.99
29907;BME280;16776;50.958;10.994;2023-11-18T06:29:12;99323.34;;;1.58;98.96
29907;BME280;16776;50.958;10.994;2023-11-18T06:31:39;99314.00;;;1.57;99.66
29907;BME280;16776;50.958;10.994;2023-11-18T06:34:06;99317.38;;;1.56;99.69
29907;BME280;16776;50.958;10.994;2023-11-18T06:36:32;99315.66;;;1.55;99.83
29907;BME280;16776;50.958;10.994;2023-11-18T06:38:59;99313.06;;;1.52;98.77
29907;BME280;16776;50.958;10.994;2023-11-18T06:41:27;99318.97;;;1.51;98.66
29907;BME280;16776;50.958;10.994;2023-11-18T06:43:58;99318.88;;;1.46;99.57
29907;BME280;16776;50.958;10.994;2023-11-18T06:46:27;99323.06;;;1.44;98.74
29907;BME280;16776;50.958;10.994;2023-11-18T06:48:56;99326.38;;;1.41;99.74
29907;BME280;16776;50.958;10.994;2023-11-18T06:51:25;99333.13;;;1.41;99.78
29907;BME280;16776;50.958;10.994;2023-11-18T06:53:53;99333.97;;;1.40;99.55
29907;BME280;16776;50.958;10.994;2023-11-18T06:56:20;99329.72;;;1.40;99.38
29907;BME280;16776;50.958;10.994;2023-11-18T06:58:48;99336.53;;;1.41;99.98
29907;BME280;16776;50.958;10.994;2023-11-18T07:01:15;99333.97;;;1.41;99.44
29907;BME280;16776;50.958;10.994;2023-11-18T07:03:41;99334.94;;;1.45;99.94
29907;BME280;16776;50.958;10.994;2023-11-18T07:06:09;99315.34;;;1.41;100.00
29907;BME280;16776;50.958;10.994;2023-11-18T07:08:35;99330.16;;;1.60;100.00
29907;BME280;16776;50.958;10.994;2023-11-18T07:11:02;99337.13;;;1.70;100.00
29907;BME280;16776;50.958;10.994;2023-11-18T07:13:29;99332.28;;;1.82;100.00
29907;BME280;16776;50.958;10.994;2023-11-18T07:15:57;99342.72;;;1.96;100.00
29907;BME280;16776;50.958;10.994;2023-11-18T07:18:24;99337.06;;;2.11;100.00
29907;BME280;16776;50.958;10.994;2023-11-18T07:20:51;99330.63;;;2.28;100.00
29907;BME280;16776;50.958;10.994;2023-11-18T07:23:17;99330.97;;;2.48;100.00
29907;BME280;16776;50.958;10.994;2023-11-18T07:25:44;99316.69;;;2.57;100.00
29907;BME280;16776;50.958;10.994;2023-11-18T07:28:11;99345.16;;;2.86;100.00
29907;BME280;16776;50.958;10.994;2023-11-18T07:30:40;99340.38;;;3.06;100.00
29907;BME280;16776;50.958;10.994;2023-11-18T07:33:08;99346.63;;;3.29;100.00
29907;BME280;16776;50.958;10.994;2023-11-18T07:35:35;99354.59;;;3.51;100.00
29907;BME280;16776;50.958;10.994;2023-11-18T07:38:02;99353.16;;;3.72;100.00
29907;BME280;16776;50.958;10.994;2023-11-18T07:40:28;99359.41;;;3.96;100.00
29907;BME280;16776;50.958;10.994;2023-11-18T07:42:55;99364.75;;;4.18;100.00
29907;BME280;16776;50.958;10.994;2023-11-18T07:45:22;99364.13;;;4.42;100.00
29907;BME280;16776;50.958;10.994;2023-11-18T07:47:49;99357.69;;;4.79;100.00
29907;BME280;16776;50.958;10.994;2023-11-18T07:50:17;99364.84;;;5.26;100.00
29907;BME280;16776;50.958;10.994;2023-11-18T07:52:45;99370.19;;;5.71;100.00
29907;BME280;16776;50.958;10.994;2023-11-18T07:55:12;99366.09;;;6.10;100.00
29907;BME280;16776;50.958;10.994;2023-11-18T07:57:39;99367.03;;;6.42;100.00
29907;BME280;16776;50.958;10.994;2023-11-18T08:00:06;99360.22;;;6.62;100.00
29907;BME280;16776;50.958;10.994;2023-11-18T08:02:34;99361.13;;;6.77;100.00
29907;BME280;16776;50.958;10.994;2023-11-18T08:05:01;99356.84;;;6.86;100.00
29907;BME280;16776;50.958;10.994;2023-11-18T08:07:30;99350.03;;;6.94;100.00
29907;BME280;16776;50.958;10.994;2023-11-18T08:09:57;99351.72;;;6.98;100.00
29907;BME280;16776;50.958;10.994;2023-11-18T08:12:24;99343.22;;;7.02;100.00
29907;BME280;16776;50.958;10.994;2023-11-18T08:14:50;99342.34;;;7.05;100.00
29907;BME280;16776;50.958;10.994;2023-11-18T08:17:18;99334.66;;;7.07;100.00
29907;BME280;16776;50.958;10.994;2023-11-18T08:19:45;99330.38;;;7.09;100.00
29907;BME280;16776;50.958;10.994;2023-11-18T08:22:12;99332.06;;;7.11;100.00
29907;BME280;16776;50.958;10.994;2023-11-18T08:24:42;99322.69;;;7.15;99.72
29907;BME280;16776;50.958;10.994;2023-11-18T08:27:09;99334.66;;;7.16;98.97
29907;BME280;16776;50.958;10.994;2023-11-18T08:29:36;99340.63;;;7.15;99.71
29907;BME280;16776;50.958;10.994;2023-11-18T08:32:04;99334.63;;;7.11;99.11
29907;BME280;16776;50.958;10.994;2023-11-18T08:34:31;99343.22;;;7.02;98.29
29907;BME280;16776;50.958;10.994;2023-11-18T08:37:01;99338.09;;;6.96;97.87
29907;BME280;16776;50.958;10.994;2023-11-18T08:39:28;99339.81;;;6.84;98.22
29907;BME280;16776;50.958;10.994;2023-11-18T08:41:57;99343.22;;;6.77;97.90
29907;BME280;16776;50.958;10.994;2023-11-18T08:44:24;99353.41;;;6.64;97.41
29907;BME280;16776;50.958;10.994;2023-11-18T08:46:52;99340.63;;;6.57;98.05
29907;BME280;16776;50.958;10.994;2023-11-18T08:49:18;99345.72;;;6.45;97.84
29907;BME280;16776;50.958;10.994;2023-11-18T08:51:46;99355.06;;;6.34;97.84
29907;BME280;16776;50.958;10.994;2023-11-18T08:54:15;99355.91;;;6.23;97.65
29907;BME280;16776;50.958;10.994;2023-11-18T08:56:50;99342.22;;;6.06;98.57
29907;BME280;16776;50.958;10.994;2023-11-18T08:59:19;99351.59;;;6.10;98.10
29907;BME280;16776;50.958;10.994;2023-11-18T09:01:50;99343.00;;;5.90;98.77
29907;BME280;16776;50.958;10.994;2023-11-18T09:04:21;99352.41;;;5.96;98.36
29907;BME280;16776;50.958;10.994;2023-11-18T09:06:49;99354.94;;;5.91;99.20
29907;BME280;16776;50.958;10.994;2023-11-18T09:09:17;99355.78;;;5.89;98.53
29907;BME280;16776;50.958;10.994;2023-11-18T09:11:52;99359.19;;;5.84;98.88
29907;BME280;16776;50.958;10.994;2023-11-18T09:14:20;99362.59;;;5.80;98.70
29907;BME280;16776;50.958;10.994;2023-11-18T09:16:46;99359.97;;;5.71;98.29
29907;BME280;16776;50.958;10.994;2023-11-18T09:19:14;99366.75;;;5.65;98.61
29907;BME280;16776;50.958;10.994;2023-11-18T09:21:42;99363.34;;;5.63;98.61
29907;BME280;16776;50.958;10.994;2023-11-18T09:24:09;99365.91;;;5.60;99.97
29907;BME280;16776;50.958;10.994;2023-11-18T09:26:38;99366.75;;;5.63;100.00
29907;BME280;16776;50.958;10.994;2023-11-18T09:29:05;99355.72;;;5.72;99.60
29907;BME280;16776;50.958;10.994;2023-11-18T09:31:35;99354.09;;;5.81;100.00
29907;BME280;16776;50.958;10.994;2023-11-18T09:34:03;99345.56;;;5.90;100.00
29907;BME280;16776;50.958;10.994;2023-11-18T09:36:32;99342.19;;;5.99;100.00
29907;BME280;16776;50.958;10.994;2023-11-18T09:38:59;99340.50;;;6.04;100.00
29907;BME280;16776;50.958;10.994;2023-11-18T09:41:28;99337.97;;;6.16;100.00
29907;BME280;16776;50.958;10.994;2023-11-18T09:43:57;99338.00;;;6.25;100.00
29907;BME280;16776;50.958;10.994;2023-11-18T09:46:28;99344.00;;;6.41;100.00
29907;BME280;16776;50.958;10.994;2023-11-18T09:49:06;99337.19;;;6.61;100.00
29907;BME280;16776;50.958;10.994;2023-11-18T09:51:42;99343.19;;;6.74;100.00
29907;BME280;16776;50.958;10.994;2023-11-18T09:54:18;99325.28;;;6.86;99.94
29907;BME280;16776;50.958;10.994;2023-11-18T09:56:51;99330.38;;;7.04;99.48
29907;BME280;16776;50.958;10.994;2023-11-18T09:59:25;99328.66;;;7.12;99.84
29907;BME280;16776;50.958;10.994;2023-11-18T10:01:57;99322.69;;;7.22;99.77
29907;BME280;16776;50.958;10.994;2023-11-18T10:04:25;99315.00;;;7.22;98.75
29907;BME280;16776;50.958;10.994;2023-11-18T10:06:53;99318.38;;;7.24;98.66
29907;BME280;16776;50.958;10.994;2023-11-18T10:09:22;99312.41;;;7.27;98.12
29907;BME280;16776;50.958;10.994;2023-11-18T10:11:54;99318.41;;;7.27;98.71
29907;BME280;16776;50.958;10.994;2023-11-18T10:14:25;99311.56;;;7.28;98.00
29907;BME280;16776;50.958;10.994;2023-11-18T10:16:52;99314.97;;;7.31;98.25
29907;BME280;16776;50.958;10.994;2023-11-18T10:19:19;99314.97;;;7.34;98.40
29907;BME280;16776;50.958;10.994;2023-11-18T10:21:48;99314.97;;;7.34;97.86
29907;BME280;16776;50.958;10.994;2023-11-18T10:24:15;99308.97;;;7.35;97.67
29907;BME280;16776;50.958;10.994;2023-11-18T10:26:45;99308.09;;;7.36;96.90
29907;BME280;16776;50.958;10.994;2023-11-18T10:29:14;99306.41;;;7.35;96.32
29907;BME280;16776;50.958;10.994;2023-11-18T10:31:43;99307.28;;;7.31;96.54
29907;BME280;16776;50.958;10.994;2023-11-18T10:34:12;99299.59;;;7.31;96.90
29907;BME280;16776;50.958;10.994;2023-11-18T10:36:41;99303.84;;;7.31;96.38
29907;BME280;16776;50.958;10.994;2023-11-18T10:39:13;99297.03;;;7.25;96.54
29907;BME280;16776;50.958;10.994;2023-11-18T10:41:42;99297.03;;;7.30;97.48
29907;BME280;16776;50.958;10.994;2023-11-18T10:44:11;99290.22;;;7.29;97.09
29907;BME280;16776;50.958;10.994;2023-11-18T10:46:41;99283.34;;;7.31;96.74
29907;BME280;16776;50.958;10.994;2023-11-18T10:49:07;99285.94;;;7.26;95.90
29907;BME280;16776;50.958;10.994;2023-11-18T10:51:35;99284.22;;;7.25;95.95
29907;BME280;16776;50.958;10.994;2023-11-18T10:54:04;99272.31;;;7.15;96.44
29907;BME280;16776;50.958;10.994;2023-11-18T10:56:46;99282.50;;;7.30;96.10
29907;BME280;16776;50.958;10.994;2023-11-18T10:59:13;99276.56;;;7.28;96.00
29907;BME280;16776;50.958;10.994;2023-11-18T11:01:42;99276.53;;;7.31;95.95
29907;BME280;16776;50.958;10.994;2023-11-18T11:04:09;99280.78;;;7.35;96.79
29907;BME280;16776;50.958;10.994;2023-11-18T11:06:41;99270.50;;;7.48;96.29
29907;BME280;16776;50.958;10.994;2023-11-18T11:09:08;99265.34;;;7.51;97.17
29907;BME280;16776;50.958;10.994;2023-11-18T11:11:46;99261.88;;;7.67;97.22
29907;BME280;16776;50.958;10.994;2023-11-18T11:14:15;99263.56;;;7.68;96.74
29907;BME280;16776;50.958;10.994;2023-11-18T11:16:45;99272.00;;;7.88;96.61
29907;BME280;16776;50.958;10.994;2023-11-18T11:19:20;99258.25;;;8.03;96.11
29907;BME280;16776;50.958;10.994;2023-11-18T11:22:00;99256.50;;;8.09;96.17
29907;BME280;16776;50.958;10.994;2023-11-18T11:24:33;99258.19;;;8.16;95.18
29907;BME280;16776;50.958;10.994;2023-11-18T11:27:10;99251.25;;;8.28;94.92
29907;BME280;16776;50.958;10.994;2023-11-18T11:29:51;99244.38;;;8.33;94.00
29907;BME280;16776;50.958;10.994;2023-11-18T11:32:26;99239.22;;;8.36;94.78
29907;BME280;16776;50.958;10.994;2023-11-18T11:34:59;99237.50;;;8.36;95.14
29907;BME280;16776;50.958;10.994;2023-11-18T11:37:32;99233.13;;;8.50;94.26
29907;BME280;16776;50.958;10.994;2023-11-18T11:40:00;99227.94;;;8.52;94.11
29907;BME280;16776;50.958;10.994;2023-11-18T11:42:31;99226.22;;;8.57;94.04
29907;BME280;16776;50.958;10.994;2023-11-18T11:45:00;99214.19;;;8.60;94.36
29907;BME280;16776;50.958;10.994;2023-11-18T11:47:28;99210.72;;;8.64;94.12
29907;BME280;16776;50.958;10.994;2023-11-18T11:50:06;99213.22;;;8.74;94.02
29907;BME280;16776;50.958;10.994;2023-11-18T11:52:42;99208.06;;;8.75;93.91
29907;BME280;16776;50.958;10.994;2023-11-18T11:55:18;99202.03;;;8.79;93.68
29907;BME280;16776;50.958;10.994;2023-11-18T11:57:52;99200.31;;;8.78;93.94
29907;BME280;16776;50.958;10.994;2023-11-18T12:00:19;99194.38;;;8.73;94.14
29907;BME280;16776;50.958;10.994;2023-11-18T12:02:51;99194.38;;;8.73;93.98
29907;BME280;16776;50.958;10.994;2023-11-18T12:05:20;99182.41;;;8.71;93.67
29907;BME280;16776;50.958;10.994;2023-11-18T12:07:52;99185.88;;;8.68;93.45
29907;BME280;16776;50.958;10.994;2023-11-18T12:10:20;99179.06;;;8.64;93.35
29907;BME280;16776;50.958;10.994;2023-11-18T12:12:47;99166.28;;;8.59;93.45
29907;BME280;16776;50.958;10.994;2023-11-18T12:15:48;99137.28;;;8.50;93.66
29907;BME280;16776;50.958;10.994;2023-11-18T12:18:19;99161.25;;;8.47;93.39
29907;BME280;16776;50.958;10.994;2023-11-18T12:20:47;99163.03;;;8.44;93.95
29907;BME280;16776;50.958;10.994;2023-11-18T12:23:19;99154.50;;;8.39;93.99
29907;BME280;16776;50.958;10.994;2023-11-18T12:25:48;99147.69;;;8.36;93.81
29907;BME280;16776;50.958;10.994;2023-11-18T12:28:20;99128.03;;;8.34;94.24
29907;BME280;16776;50.958;10.994;2023-11-18T12:30:54;99127.16;;;8.33;93.34
29907;BME280;16776;50.958;10.994;2023-11-18T12:34:00;99130.59;;;8.35;93.58
29907;BME280;16776;50.958;10.994;2023-11-18T12:37:04;99130.69;;;8.24;92.37
29907;BME280;16776;50.958;10.994;2023-11-18T12:43:07;99165.06;;;8.01;93.10
29907;BME280;16776;50.958;10.994;2023-11-18T12:48:43;99143.81;;;7.83;93.10
29907;BME280;16776;50.958;10.994;2023-11-18T12:51:12;99142.16;;;7.75;93.22
29907;BME280;16776;50.958;10.994;2023-11-18T12:53:45;99142.16;;;7.78;94.29
29907;BME280;16776;50.958;10.994;2023-11-18T12:56:12;99137.97;;;7.65;93.26
29907;BME280;16776;50.958;10.994;2023-11-18T12:58:39;99136.31;;;7.61;93.18
29907;BME280;16776;50.958;10.994;2023-11-18T13:01:05;99138.88;;;7.58;92.88
29907;BME280;16776;50.958;10.994;2023-11-18T13:03:32;99135.50;;;7.53;93.87
29907;BME280;16776;50.958;10.994;2023-11-18T13:06:01;99144.91;;;7.52;92.80
29907;BME280;16776;50.958;10.994;2023-11-18T13:08:31;99142.38;;;7.48;93.12
29907;BME280;16776;50.958;10.994;2023-11-18T13:10:58;99143.22;;;7.43;92.52